Time;durP1;ratioP1;P1;durP2;ratioP2;P2;SDS_P1;SDS_P2;PMS_P1;PMS_P2;Temp;Humidity;BMP_temperature;BMP_pressure;BME280_temperature;BME280_humidity;BME280_pressure;Samples;Min_cycle;Max_cycle;Signal;HPM_P1;HPM_P2
2023/12/16 00:02:33;;;;;;;36.55;11.98;;;;;;;0.78;100.00;101060.66;10372456;28;20049;-72
2023/12/16 00:07:34;;;;;;;101.32;13.30;;;;;;;0.74;100.00;101055.66;10372172;28;20048;-72
2023/12/16 00:12:35;;;;;;;56.72;13.63;;;;;;;0.79;100.00;101062.34;10372467;28;20040;-71
2023/12/16 00:17:36;;;;;;;35.85;12.07;;;;;;;0.81;100.00;101062.25;10372203;28;20044;-71
2023/12/16 00:22:40;;;;;;;20.67;11.73;;;;;;;0.52;100.00;101035.13;10372157;28;20042;-72
2023/12/16 00:27:41;;;;;;;93.85;13.10;;;;;;;0.77;100.00;101090.34;10371320;28;20123;-72
2023/12/16 00:32:42;;;;;;;63.17;12.20;;;;;;;0.70;100.00;101077.72;10371409;28;20087;-72
2023/12/16 00:37:43;;;;;;;56.40;14.20;;;;;;;0.43;100.00;101042.56;10370847;28;20060;-72
2023/12/16 00:42:44;;;;;;;58.67;12.10;;;;;;;0.69;100.00;101071.63;10370773;28;20034;-71
2023/12/16 00:47:44;;;;;;;72.03;12.85;;;;;;;0.76;100.00;101075.59;10370620;28;20042;-72
2023/12/16 00:52:45;;;;;;;84.38;13.30;;;;;;;0.66;100.00;101043.88;10371883;28;20065;-72
2023/12/16 00:57:46;;;;;;;52.70;11.68;;;;;;;0.77;100.00;101058.94;10371430;28;20045;-71
2023/12/16 01:02:47;;;;;;;58.53;13.75;;;;;;;0.88;100.00;101069.66;10370762;28;20042;-72
2023/12/16 01:07:48;;;;;;;88.07;12.60;;;;;;;0.79;100.00;101051.88;10370479;28;20045;-71
2023/12/16 01:12:49;;;;;;;88.18;12.98;;;;;;;0.85;100.00;101064.59;10369228;28;20042;-71
2023/12/16 01:17:50;;;;;;;126.45;12.77;;;;;;;0.91;100.00;101064.25;10370301;28;20129;-72
2023/12/16 01:22:51;;;;;;;70.15;12.63;;;;;;;0.98;100.00;101063.88;10369660;28;20114;-72
2023/12/16 01:27:52;;;;;;;71.65;13.75;;;;;;;0.96;100.00;101065.75;10369456;28;20106;-72
2023/12/16 01:32:53;;;;;;;82.10;13.15;;;;;;;0.95;100.00;101090.22;10369920;28;20406;-72
2023/12/16 01:37:54;;;;;;;49.40;12.60;;;;;;;0.88;100.00;101101.03;10371046;28;20049;-71
2023/12/16 01:42:55;;;;;;;48.60;13.73;;;;;;;0.90;100.00;101093.97;10369004;28;20042;-71
2023/12/16 01:47:56;;;;;;;46.47;12.15;;;;;;;0.98;100.00;101117.06;10369407;28;20038;-71
2023/12/16 01:52:57;;;;;;;22.83;12.60;;;;;;;0.98;100.00;101113.59;10369799;28;20526;-72
2023/12/16 01:57:59;;;;;;;27.15;12.77;;;;;;;1.02;100.00;101102.03;10369300;28;20194;-72
2023/12/16 02:03:00;;;;;;;25.23;12.95;;;;;;;1.03;100.00;101108.94;10366447;28;20046;-72
2023/12/16 02:08:01;;;;;;;28.20;13.35;;;;;;;0.97;100.00;101117.16;10368230;28;20041;-72
2023/12/16 02:13:03;;;;;;;25.33;12.90;;;;;;;1.15;100.00;101157.97;10368374;28;20046;-72
2023/12/16 02:18:04;;;;;;;33.20;12.05;;;;;;;1.06;100.00;101142.78;10368092;28;20072;-72
2023/12/16 02:23:06;;;;;;;46.33;13.38;;;;;;;0.78;100.00;101094.66;10367740;28;20050;-72
2023/12/16 02:28:06;;;;;;;52.38;14.45;;;;;;;0.76;100.00;101096.50;10367517;28;20045;-72
2023/12/16 02:33:07;;;;;;;26.02;13.80;;;;;;;1.16;100.00;101157.03;10367215;28;20560;-72
2023/12/16 02:38:08;;;;;;;27.45;14.50;;;;;;;1.21;100.00;101169.84;10367210;28;20044;-72
2023/12/16 02:43:09;;;;;;;24.58;14.07;;;;;;;1.27;100.00;101180.81;10367098;28;20034;-72
2023/12/16 02:48:10;;;;;;;25.85;13.93;;;;;;;1.04;100.00;101142.03;10367086;28;20120;-72
2023/12/16 02:53:11;;;;;;;23.70;12.57;;;;;;;1.37;100.00;101199.44;10367939;28;20069;-72
2023/12/16 02:58:11;;;;;;;23.05;13.68;;;;;;;1.42;100.00;101212.28;10366545;28;20050;-72
2023/12/16 03:03:12;;;;;;;25.60;12.52;;;;;;;1.10;100.00;101163.44;10366625;28;20049;-72
2023/12/16 03:08:13;;;;;;;24.13;13.40;;;;;;;1.42;100.00;101230.63;10366895;28;20034;-72
2023/12/16 03:13:14;;;;;;;23.63;12.82;;;;;;;1.26;100.00;101207.94;10364963;28;20046;-72
2023/12/16 03:18:14;;;;;;;21.83;12.45;;;;;;;1.23;100.00;101217.75;10366207;28;20120;-71
2023/12/16 03:23:16;;;;;;;20.80;12.60;;;;;;;1.43;100.00;101242.75;10365922;28;20521;-71
2023/12/16 03:28:16;;;;;;;21.05;11.43;;;;;;;1.47;100.00;101265.25;10365715;28;20133;-71
2023/12/16 03:33:17;;;;;;;18.30;10.75;;;;;;;1.45;100.00;101277.56;10365594;28;20129;-72
2023/12/16 03:38:18;;;;;;;27.17;11.73;;;;;;;1.48;100.00;101285.25;10366013;28;20042;-71
2023/12/16 03:43:19;;;;;;;18.95;11.77;;;;;;;1.49;100.00;101287.78;10366043;28;20049;-72
2023/12/16 03:48:20;;;;;;;24.17;10.48;;;;;;;0.90;100.00;101208.22;10365914;28;20042;-71
2023/12/16 03:53:20;;;;;;;19.65;11.55;;;;;;;1.47;100.00;101307.13;10365989;28;20451;-71
2023/12/16 03:58:21;;;;;;;20.25;12.40;;;;;;;1.52;100.00;101315.56;10365520;28;20053;-71
2023/12/16 04:03:22;;;;;;;19.33;11.57;;;;;;;1.55;100.00;101333.72;10364511;28;20042;-72
2023/12/16 04:08:22;;;;;;;18.38;10.50;;;;;;;1.40;100.00;101295.31;10365151;28;20497;-71
2023/12/16 04:13:23;;;;;;;14.82;9.80;;;;;;;1.10;100.00;101251.56;10364977;28;20049;-71
2023/12/16 04:18:24;;;;;;;19.00;9.98;;;;;;;0.96;100.00;101238.41;10363979;28;20614;-72
2023/12/16 04:23:25;;;;;;;21.58;10.82;;;;;;;1.57;100.00;101331.88;10382151;28;20115;-72
2023/12/16 04:28:26;;;;;;;22.95;11.93;;;;;;;1.40;100.00;101314.47;10377961;28;20042;-72
2023/12/16 04:33:27;;;;;;;23.80;11.20;;;;;;;1.72;100.00;101348.50;10399838;28;20094;-72
2023/12/16 04:38:28;;;;;;;27.55;11.95;;;;;;;1.87;100.00;101365.97;10411874;28;20041;-72
2023/12/16 04:43:28;;;;;;;27.77;12.63;;;;;;;1.70;100.00;101319.75;10411929;28;20505;-72
2023/12/16 04:48:29;;;;;;;28.80;12.35;;;;;;;1.99;100.00;101381.00;10412330;28;20044;-72
2023/12/16 04:53:31;;;;;;;27.13;12.90;;;;;;;2.14;100.00;101397.63;10412744;28;20522;-72
2023/12/16 04:58:32;;;;;;;21.88;11.95;;;;;;;2.20;100.00;101389.41;10411287;28;20041;-72
2023/12/16 05:03:33;;;;;;;20.13;11.73;;;;;;;2.26;100.00;101406.56;10411200;28;20042;-73
2023/12/16 05:08:35;;;;;;;19.20;11.27;;;;;;;2.26;100.00;101406.56;10410260;28;20142;-74
2023/12/16 05:13:35;;;;;;;17.92;10.73;;;;;;;1.91;100.00;101343.88;10390294;28;20041;-73
2023/12/16 05:18:36;;;;;;;20.30;11.32;;;;;;;2.31;100.00;101401.06;10389462;28;20046;-73
2023/12/16 05:23:37;;;;;;;20.65;11.07;;;;;;;2.07;100.00;101353.53;10406127;28;20124;-73
2023/12/16 05:28:38;;;;;;;16.90;10.32;;;;;;;2.32;100.00;101406.19;10410982;28;20128;-73
2023/12/16 05:33:39;;;;;;;14.63;9.77;;;;;;;2.14;100.00;101374.03;10410629;28;20046;-72
2023/12/16 05:38:40;;;;;;;13.55;9.50;;;;;;;2.44;100.00;101420.38;10388206;28;20042;-72
2023/12/16 05:43:41;;;;;;;14.13;9.52;;;;;;;2.66;100.00;101444.44;10372761;28;20445;-70
2023/12/16 05:48:42;;;;;;;12.80;8.57;;;;;;;2.76;100.00;101425.53;10410359;28;20056;-73
2023/12/16 06:35:58;;;;;;;15.70;10.70;;;;;;;2.98;100.00;101507.28;12236607;22;20058;-72
2023/12/16 06:40:58;;;;;;;17.80;11.15;;;;;;;3.03;100.00;101507.88;10301673;28;20037;-68
2023/12/16 06:45:59;;;;;;;27.80;15.55;;;;;;;3.07;100.00;101526.91;10299481;28;20111;-69
2023/12/16 06:51:00;;;;;;;21.35;12.63;;;;;;;3.15;100.00;101527.31;10211927;28;20051;-71
2023/12/16 06:56:01;;;;;;;16.25;11.35;;;;;;;3.08;100.00;101495.31;10239143;28;20098;-69
2023/12/16 07:01:02;;;;;;;14.88;10.15;;;;;;;3.35;100.00;101511.22;10354856;28;20073;-69
2023/12/16 07:06:02;;;;;;;15.98;11.00;;;;;;;3.48;100.00;101532.31;10383195;28;20488;-69
2023/12/16 07:11:03;;;;;;;15.13;10.50;;;;;;;3.60;100.00;101543.84;10413028;28;20037;-70
2023/12/16 07:16:06;;;;;;;15.48;10.32;;;;;;;3.60;100.00;101539.44;10375348;28;20053;-70
2023/12/16 07:21:07;;;;;;;16.52;10.73;;;;;;;3.51;100.00;101536.53;10234747;28;20048;-70
2023/12/16 07:26:08;;;;;;;14.25;10.15;;;;;;;3.52;100.00;101533.81;10283564;28;20502;-70
2023/12/16 07:31:08;;;;;;;24.67;16.58;;;;;;;3.64;100.00;101542.72;10249127;28;20045;-70
2023/12/16 07:36:10;;;;;;;20.58;12.15;;;;;;;3.80;100.00;101534.72;10218512;28;20519;-69
2023/12/16 07:41:11;;;;;;;15.07;11.10;;;;;;;3.81;100.00;101532.03;10284380;28;20044;-70
2023/12/16 07:46:12;;;;;;;19.60;11.77;;;;;;;3.59;100.00;101505.38;10379318;28;20049;-68
2023/12/16 07:51:16;;;;;;;21.55;12.50;;;;;;;3.91;100.00;101537.53;10355825;28;20122;-68
2023/12/16 07:56:22;;;;;;;23.50;15.38;;;;;;;3.87;100.00;101530.81;10298879;28;20070;-69
2023/12/16 08:01:23;;;;;;;21.60;13.80;;;;;;;3.85;100.00;101536.13;10289241;28;20398;-69
2023/12/16 08:06:23;;;;;;;21.00;14.90;;;;;;;3.46;100.00;101486.06;10286597;28;20046;-72
2023/12/16 08:11:24;;;;;;;25.50;15.38;;;;;;;3.70;100.00;101538.88;10240988;28;20039;-71
2023/12/16 08:16:25;;;;;;;35.38;17.95;;;;;;;3.65;100.00;101534.75;10258011;28;20062;-70
2023/12/16 08:21:26;;;;;;;23.38;15.05;;;;;;;3.70;100.00;101521.31;10230689;28;20043;-69
2023/12/16 08:26:27;;;;;;;18.85;12.82;;;;;;;3.51;100.00;101499.75;10311594;28;20046;-70
2023/12/16 08:31:27;;;;;;;21.50;12.20;;;;;;;3.65;100.00;101531.28;10287573;28;20063;-70
2023/12/16 08:36:28;;;;;;;15.52;10.60;;;;;;;3.55;100.00;101527.53;10260493;28;20063;-69
2023/12/16 08:41:29;;;;;;;14.77;10.38;;;;;;;3.19;100.00;101460.53;10229416;29;20063;-70
2023/12/16 08:46:30;;;;;;;16.13;10.55;;;;;;;3.61;100.00;101530.63;10226316;29;20052;-70
2023/12/16 08:51:31;;;;;;;19.05;12.77;;;;;;;3.67;100.00;101529.41;10231056;29;20039;-71
2023/12/16 08:56:32;;;;;;;18.77;12.48;;;;;;;3.61;100.00;101527.97;10228434;29;20032;-72
2023/12/16 09:01:33;;;;;;;16.70;11.23;;;;;;;3.30;100.00;101489.63;10258230;28;20047;-72
2023/12/16 09:06:39;;;;;;;20.48;12.68;;;;;;;2.90;100.00;101421.16;10259176;28;20519;-70
2023/12/16 09:11:40;;;;;;;14.65;10.35;;;;;;;3.49;100.00;101509.50;10250610;28;20047;-71
2023/12/16 09:16:42;;;;;;;15.15;9.73;;;;;;;3.57;100.00;101507.25;10271112;28;20131;-70
2023/12/16 09:21:43;;;;;;;20.55;13.32;;;;;;;3.58;100.00;101507.16;10312301;28;20578;-69
2023/12/16 09:26:44;;;;;;;33.97;14.80;;;;;;;3.15;100.00;101428.38;10316653;28;20123;-70
2023/12/16 09:31:45;;;;;;;21.15;14.63;;;;;;;3.56;100.00;101500.31;10379842;28;20044;-70
2023/12/16 09:36:46;;;;;;;19.30;13.93;;;;;;;3.02;100.00;101402.94;10208128;29;20114;-70
2023/12/16 09:41:48;;;;;;;19.00;12.25;;;;;;;3.70;100.00;101508.19;10360493;28;20041;-70
2023/12/16 09:46:50;;;;;;;17.80;12.80;;;;;;;3.62;100.00;101506.03;10221074;28;20052;-70
2023/12/16 09:51:50;;;;;;;18.85;12.45;;;;;;;3.41;100.00;101486.31;10211920;28;20036;-70
2023/12/16 09:56:53;;;;;;;18.25;12.57;;;;;;;3.38;100.00;101507.53;10309585;28;20059;-70
2023/12/16 10:01:58;;;;;;;24.33;14.65;;;;;;;3.23;100.00;101487.44;10293134;28;20075;-70
2023/12/16 10:06:59;;;;;;;32.88;15.95;;;;;;;3.24;100.00;101499.66;10330434;28;20057;-70
2023/12/16 10:12:00;;;;;;;27.60;16.33;;;;;;;3.16;100.00;101506.19;10305181;28;20095;-70
2023/12/16 10:17:05;;;;;;;28.80;15.75;;;;;;;2.73;100.00;101444.91;10238341;28;20043;-70
2023/12/16 10:22:05;;;;;;;39.42;20.70;;;;;;;3.06;100.00;101491.09;10261333;28;20047;-69
2023/12/16 10:27:07;;;;;;;32.95;19.25;;;;;;;3.20;100.00;101507.72;10270051;28;20045;-68
2023/12/16 10:32:11;;;;;;;34.55;18.50;;;;;;;3.21;100.00;101495.44;10255863;28;20036;-69
2023/12/16 10:37:12;;;;;;;25.60;16.33;;;;;;;2.96;100.00;101460.16;10247718;28;20063;-70
2023/12/16 10:42:13;;;;;;;27.67;16.55;;;;;;;3.24;100.00;101516.25;10238127;28;20062;-70
2023/12/16 10:47:17;;;;;;;30.05;17.00;;;;;;;3.18;100.00;101519.25;10256195;28;20479;-69
2023/12/16 10:52:20;;;;;;;48.50;25.80;;;;;;;3.14;100.00;101512.47;10232278;28;20035;-70
2023/12/16 10:57:46;;;;;;;31.80;19.17;;;;;;;2.54;100.00;101415.44;10268387;28;20122;-70
2023/12/16 11:02:50;;;;;;;26.30;16.75;;;;;;;2.94;100.00;101493.50;10254059;28;20125;-71
2023/12/16 11:07:52;;;;;;;28.48;17.95;;;;;;;2.94;100.00;101511.03;10231158;28;20039;-69
2023/12/16 11:12:54;;;;;;;25.45;15.90;;;;;;;2.61;100.00;101454.34;10228002;28;20047;-70
2023/12/16 11:18:16;;;;;;;25.15;15.07;;;;;;;3.03;100.00;101521.00;10257751;28;20040;-70
2023/12/16 11:23:18;;;;;;;24.30;13.30;;;;;;;2.92;100.00;101520.78;10297315;28;20038;-73
2023/12/16 11:28:19;;;;;;;25.92;16.95;;;;;;;2.86;100.00;101521.97;10412154;28;20052;-71
2023/12/16 11:33:20;;;;;;;26.77;16.48;;;;;;;2.87;100.00;101521.06;10344120;28;20056;-70
2023/12/16 11:38:40;;;;;;;25.48;16.63;;;;;;;2.77;100.00;101506.75;10360515;28;20063;-69
2023/12/16 11:43:51;;;;;;;28.27;17.77;;;;;;;2.63;100.00;101511.97;10263785;28;20054;-70
2023/12/16 11:48:52;;;;;;;40.47;23.17;;;;;;;2.72;100.00;101529.78;10250740;28;20090;-70
2023/12/16 11:53:57;;;;;;;26.85;17.33;;;;;;;2.64;100.00;101527.63;10251638;29;20452;-71
2023/12/16 11:58:58;;;;;;;;;;;;;;;2.79;100.00;101530.31;10282229;28;20050;-70
2023/12/16 12:04:01;;;;;;;21.52;14.20;;;;;;;2.29;100.00;101482.41;10282440;28;20459;-69
2023/12/16 12:09:02;;;;;;;23.02;14.85;;;;;;;2.17;100.00;101470.84;10280198;28;20057;-70
2023/12/16 12:14:03;;;;;;;25.55;17.42;;;;;;;2.32;100.00;101518.13;10293655;28;20412;-68
2023/12/16 12:19:04;;;;;;;24.73;15.77;;;;;;;2.08;100.00;101487.09;10216379;28;20435;-69
2023/12/16 12:24:06;;;;;;;23.98;15.50;;;;;;;2.28;100.00;101523.53;10210302;29;20043;-69
2023/12/16 12:29:06;;;;;;;24.10;15.25;;;;;;;2.16;100.00;101515.50;10211766;29;20047;-69
2023/12/16 12:34:07;;;;;;;26.30;15.13;;;;;;;1.90;100.00;101488.09;10211889;29;20047;-69
2023/12/16 12:39:14;;;;;;;28.52;15.75;;;;;;;2.03;100.00;101510.06;10210984;28;20056;-70
2023/12/16 12:44:14;;;;;;;23.45;14.73;;;;;;;2.11;100.00;101528.00;10211706;29;20051;-69
2023/12/16 12:49:16;;;;;;;21.75;14.48;;;;;;;2.05;100.00;101547.53;10211301;29;20039;-70
2023/12/16 12:54:20;;;;;;;23.27;14.15;;;;;;;1.72;100.00;101469.00;10211448;29;20051;-70
2023/12/16 12:59:21;;;;;;;18.55;12.70;;;;;;;2.04;100.00;101536.22;10212896;28;20122;-70
2023/12/16 13:04:22;;;;;;;19.88;13.18;;;;;;;1.98;100.00;101525.22;10221951;28;20056;-71
2023/12/16 13:09:22;;;;;;;22.58;13.38;;;;;;;1.88;100.00;101526.63;10373035;28;20041;-69
2023/12/16 13:14:23;;;;;;;20.55;13.63;;;;;;;1.47;100.00;101449.38;10416213;28;20119;-70
2023/12/16 13:19:24;;;;;;;21.98;14.73;;;;;;;1.91;100.00;101526.47;10416744;28;20527;-69
2023/12/16 13:24:27;;;;;;;21.98;13.25;;;;;;;1.89;100.00;101523.94;10418267;28;20096;-70
2023/12/16 13:29:27;;;;;;;19.75;12.90;;;;;;;1.76;100.00;101531.59;10358159;28;20055;-71
2023/12/16 13:34:28;;;;;;;20.67;13.60;;;;;;;1.74;100.00;101509.91;10268171;28;20044;-71
2023/12/16 13:39:29;;;;;;;21.73;12.93;;;;;;;1.70;100.00;101505.75;10209594;29;20539;-71
2023/12/16 13:44:30;;;;;;;19.88;12.48;;;;;;;1.32;100.00;101445.81;10212534;28;20093;-71
2023/12/16 13:49:31;;;;;;;17.33;11.57;;;;;;;1.62;100.00;101486.16;10301427;28;20496;-71
2023/12/16 13:54:33;;;;;;;19.23;12.40;;;;;;;1.29;100.00;101451.19;10250983;28;20051;-69
2023/12/16 13:59:35;;;;;;;25.25;15.13;;;;;;;1.22;100.00;101452.44;10263994;28;20035;-69
2023/12/16 14:04:38;;;;;;;21.30;13.25;;;;;;;1.52;100.00;101519.81;10297427;28;20039;-69
2023/12/16 14:09:39;;;;;;;20.77;12.50;;;;;;;1.00;100.00;101438.78;10228162;29;20124;-70
2023/12/16 14:14:39;;;;;;;21.25;14.00;;;;;;;1.32;100.00;101519.09;10244453;28;20082;-69
2023/12/16 14:19:43;;;;;;;26.00;16.30;;;;;;;1.10;100.00;101492.34;10282929;28;20037;-69
2023/12/16 14:24:44;;;;;;;25.67;17.58;;;;;;;1.18;100.00;101508.50;10248660;28;20044;-69
2023/12/16 14:29:45;;;;;;;22.48;14.45;;;;;;;1.27;100.00;101521.09;10262977;28;20039;-69
2023/12/16 14:34:46;;;;;;;25.25;16.85;;;;;;;1.12;100.00;101500.97;10253178;28;20503;-69
2023/12/16 14:39:47;;;;;;;28.33;16.25;;;;;;;0.94;100.00;101470.50;10254640;28;20062;-69
2023/12/16 14:44:48;;;;;;;27.08;16.00;;;;;;;1.12;100.00;101506.19;10260815;28;20036;-69
2023/12/16 14:49:49;;;;;;;29.35;17.70;;;;;;;1.17;100.00;101519.91;10248934;28;20399;-69
2023/12/16 14:54:49;;;;;;;26.50;16.15;;;;;;;0.67;100.00;101422.13;10303473;28;20507;-69
2023/12/16 14:59:53;;;;;;;37.78;21.85;;;;;;;1.29;100.00;101503.56;10288333;28;20484;-68
2023/12/16 15:04:54;;;;;;;30.25;19.95;;;;;;;1.26;100.00;101513.34;10273122;28;20042;-68
2023/12/16 15:09:55;;;;;;;28.70;17.92;;;;;;;0.85;100.00;101464.81;10259583;28;20258;-69
2023/12/16 15:14:56;;;;;;;34.30;21.95;;;;;;;1.13;100.00;101511.34;10223557;29;20069;-69
2023/12/16 15:19:56;;;;;;;31.25;18.30;;;;;;;1.13;100.00;101526.19;10262648;28;20052;-69
2023/12/16 15:24:57;;;;;;;33.95;20.10;;;;;;;0.66;100.00;101461.44;10314684;28;20084;-69
2023/12/16 15:29:58;;;;;;;35.88;19.65;;;;;;;0.99;100.00;101523.44;10325057;28;20049;-69
2023/12/16 15:34:59;;;;;;;37.15;18.00;;;;;;;0.74;100.00;101489.81;10412797;28;20064;-69
2023/12/16 15:40:00;;;;;;;30.48;18.30;;;;;;;0.99;100.00;101519.06;10407659;28;20066;-69
2023/12/16 15:45:01;;;;;;;38.17;18.40;;;;;;;0.87;100.00;101517.91;10380163;28;20056;-69
2023/12/16 15:50:04;;;;;;;38.83;17.27;;;;;;;0.62;100.00;101481.66;10406669;28;20513;-69
2023/12/16 15:55:05;;;;;;;35.05;17.17;;;;;;;0.88;100.00;101540.53;10205426;29;20051;-67
2023/12/16 16:00:08;;;;;;;29.60;14.35;;;;;;;0.72;100.00;101518.69;10205285;29;20522;-69
2023/12/16 16:05:09;;;;;;;27.73;12.27;;;;;;;0.72;100.00;101543.97;10206307;29;20044;-69
2023/12/16 16:10:10;;;;;;;27.40;9.85;;;;;;;0.57;100.00;101537.72;10265576;28;20041;-69
2023/12/16 16:15:11;;;;;;;22.17;8.70;;;;;;;0.57;100.00;101548.16;10279304;28;20635;-69
2023/12/16 16:20:11;;;;;;;21.13;6.68;;;;;;;0.50;100.00;101558.06;10276425;28;20053;-70
2023/12/16 16:25:12;;;;;;;17.20;4.85;;;;;;;0.38;100.00;101543.81;10277062;28;20045;-69
2023/12/16 16:30:14;;;;;;;11.85;3.88;;;;;;;0.25;100.00;101545.34;10419561;28;20095;-69
2023/12/16 16:35:14;;;;;;;23.48;5.20;;;;;;;0.16;100.00;101551.84;10394340;28;20094;-69
2023/12/16 16:40:17;;;;;;;16.40;4.70;;;;;;;0.22;100.00;101553.31;10209974;29;20113;-69
2023/12/16 16:45:18;;;;;;;17.30;5.05;;;;;;;0.21;100.00;101543.81;10241667;28;20040;-69
2023/12/16 16:50:19;;;;;;;19.75;5.60;;;;;;;0.10;100.00;101533.00;10364745;28;20054;-69
2023/12/16 16:55:20;;;;;;;16.33;5.13;;;;;;;0.16;100.00;101551.00;10337269;28;20057;-70
2023/12/16 17:00:24;;;;;;;16.83;5.85;;;;;;;-0.14;100.00;101506.25;10296996;28;20042;-70
2023/12/16 17:05:25;;;;;;;19.77;5.75;;;;;;;0.05;100.00;101548.03;10282697;28;20493;-72
2023/12/16 17:10:27;;;;;;;18.13;6.55;;;;;;;-0.33;100.00;101495.78;10295562;28;20043;-69
2023/12/16 17:15:29;;;;;;;13.30;5.07;;;;;;;-0.20;100.00;101543.09;10273340;28;20086;-70
2023/12/16 17:20:30;;;;;;;52.92;27.55;;;;;;;-0.44;100.00;101505.88;10277314;28;20142;-69
2023/12/16 17:25:31;;;;;;;53.40;23.42;;;;;;;-0.48;100.00;101508.63;10268319;28;20126;-68
2023/12/16 17:30:33;;;;;;;30.10;11.80;;;;;;;-0.43;100.00;101518.00;10309532;28;20047;-69
2023/12/16 17:35:38;;;;;;;39.78;16.88;;;;;;;-0.43;100.00;101525.84;10287117;28;20436;-70
2023/12/16 17:40:39;;;;;;;36.75;17.83;;;;;;;-0.51;100.00;101531.38;10276925;28;20043;-69
2023/12/16 17:45:41;;;;;;;41.03;19.63;;;;;;;-0.52;100.00;101533.16;10262065;28;20130;-69
2023/12/16 17:50:44;;;;;;;21.52;8.30;;;;;;;-0.69;100.00;101480.84;10225500;29;20043;-69
2023/12/16 17:55:45;;;;;;;30.33;11.43;;;;;;;-0.47;100.00;101525.97;10242694;28;20543;-69
2023/12/16 18:00:47;;;;;;;31.50;12.55;;;;;;;-0.50;100.00;101528.72;10247260;28;20054;-70
2023/12/16 18:05:48;;;;;;;20.02;5.50;;;;;;;-0.50;100.00;101530.50;10226729;29;20620;-69
2023/12/16 18:10:51;;;;;;;22.02;4.20;;;;;;;-0.43;100.00;101544.09;10211491;28;20071;-70
2023/12/16 18:15:54;;;;;;;22.00;4.68;;;;;;;-0.49;100.00;101540.84;10208864;29;20143;-71
2023/12/16 18:20:55;;;;;;;14.02;4.60;;;;;;;-0.59;100.00;101530.91;10208513;29;20411;-70
2023/12/16 18:26:00;;;;;;;13.38;4.00;;;;;;;-0.62;100.00;101521.44;10316967;28;20068;-69
2023/12/16 18:31:01;;;;;;;18.85;4.80;;;;;;;-0.73;100.00;101519.28;10370327;28;20524;-70
2023/12/16 18:36:02;;;;;;;17.45;4.63;;;;;;;-0.52;100.00;101527.09;10414202;28;20067;-69
2023/12/16 18:41:03;;;;;;;20.10;5.15;;;;;;;-0.55;100.00;101530.69;10415618;28;20059;-69
2023/12/16 18:46:05;;;;;;;22.15;5.78;;;;;;;-0.48;100.00;101533.84;10414254;28;20038;-70
2023/12/16 18:51:05;;;;;;;20.98;4.38;;;;;;;-0.88;100.00;101474.75;10413873;28;20045;-70
2023/12/16 18:56:07;;;;;;;18.77;5.28;;;;;;;-0.62;100.00;101518.81;10414193;28;20493;-69
2023/12/16 19:01:08;;;;;;;26.70;5.03;;;;;;;-0.55;100.00;101503.72;10414280;28;20083;-69
2023/12/16 19:06:09;;;;;;;23.63;5.05;;;;;;;-0.61;100.00;101491.78;10414179;28;20096;-69
2023/12/16 19:11:11;;;;;;;13.90;4.80;;;;;;;-0.71;100.00;101480.94;10413917;28;20092;-69
2023/12/16 19:16:13;;;;;;;14.90;4.43;;;;;;;-0.79;100.00;101488.25;10412901;28;20687;-69
2023/12/16 19:21:13;;;;;;;17.92;5.20;;;;;;;-0.84;100.00;101481.53;10414096;28;20048;-69
2023/12/16 19:26:14;;;;;;;23.65;4.78;;;;;;;-0.78;100.00;101499.50;10413251;28;20387;-70
2023/12/16 19:31:15;;;;;;;21.75;5.18;;;;;;;-0.87;100.00;101492.09;10412693;28;20049;-70
2023/12/16 19:36:16;;;;;;;24.75;5.20;;;;;;;-1.02;100.00;101493.59;10412220;28;20064;-69
2023/12/16 19:41:17;;;;;;;19.02;5.03;;;;;;;-1.05;100.00;101502.41;10413868;28;20038;-70
2023/12/16 19:46:18;;;;;;;20.70;5.32;;;;;;;-1.03;100.00;101489.31;10413320;28;20064;-70
2023/12/16 19:51:19;;;;;;;20.05;4.82;;;;;;;-1.11;100.00;101476.56;10413257;28;20037;-70
2023/12/16 19:56:20;;;;;;;17.15;6.03;;;;;;;-1.24;100.00;101472.81;10413774;28;20056;-67
2023/12/16 20:01:21;;;;;;;20.80;5.45;;;;;;;-1.79;100.00;101370.91;10420219;28;20041;-67
2023/12/16 20:06:22;;;;;;;24.67;6.03;;;;;;;-1.20;100.00;101474.38;10420095;28;20167;-67
2023/12/16 20:11:22;;;;;;;22.00;5.15;;;;;;;-1.59;100.00;101420.38;10419913;28;20071;-69
2023/12/16 20:16:23;;;;;;;16.27;5.22;;;;;;;-1.15;100.00;101503.72;10419460;28;20057;-70
2023/12/16 20:21:24;;;;;;;28.60;6.40;;;;;;;-1.43;100.00;101429.28;10419536;28;20122;-70
2023/12/16 20:26:25;;;;;;;26.23;5.22;;;;;;;-1.05;100.00;101491.97;10267924;28;20529;-71
2023/12/16 20:31:26;;;;;;;26.00;6.43;;;;;;;-1.19;100.00;101487.34;10212088;29;20130;-70
2023/12/16 20:36:30;;;;;;;28.23;8.00;;;;;;;-1.17;100.00;101482.06;10211134;29;20068;-70
2023/12/16 20:41:31;;;;;;;22.35;8.10;;;;;;;-1.22;100.00;101473.59;10212060;29;20070;-70
2023/12/16 20:46:32;;;;;;;30.40;11.20;;;;;;;-1.57;100.00;101407.31;10211535;29;20083;-70
2023/12/16 20:51:33;;;;;;;43.03;12.90;;;;;;;-1.33;100.00;101466.22;10212084;29;20078;-70
2023/12/16 20:56:34;;;;;;;28.83;9.43;;;;;;;-1.25;100.00;101478.94;10210853;29;20523;-70
2023/12/16 21:01:36;;;;;;;36.22;11.93;;;;;;;-1.29;100.00;101477.34;10209241;29;20086;-70
2023/12/16 21:06:37;;;;;;;34.88;11.88;;;;;;;-1.35;100.00;101464.59;10209835;29;20101;-70
2023/12/16 21:11:37;;;;;;;30.17;8.07;;;;;;;-1.25;100.00;101455.47;10210266;29;20139;-70
2023/12/16 21:16:39;;;;;;;26.00;6.25;;;;;;;-1.27;100.00;101452.94;10209889;29;20093;-70
2023/12/16 21:21:40;;;;;;;27.83;7.15;;;;;;;-1.54;100.00;101415.00;10210202;29;20565;-70
2023/12/16 21:26:43;;;;;;;19.63;5.45;;;;;;;-1.46;100.00;101434.63;10209631;29;20040;-70
2023/12/16 21:31:44;;;;;;;17.10;5.97;;;;;;;-1.53;100.00;101433.16;10210881;29;20036;-70
2023/12/16 21:36:45;;;;;;;22.27;5.97;;;;;;;-1.36;100.00;101461.13;10209740;28;20064;-70
2023/12/16 21:41:46;;;;;;;19.75;6.47;;;;;;;-1.43;100.00;101437.09;10262642;28;20121;-69
2023/12/16 21:46:48;;;;;;;23.27;5.80;;;;;;;-1.40;100.00;101428.31;10225391;28;20128;-69
2023/12/16 21:51:48;;;;;;;17.10;6.57;;;;;;;-1.53;100.00;101404.50;10415019;28;20038;-70
2023/12/16 21:56:49;;;;;;;23.85;6.55;;;;;;;-1.38;100.00;101434.28;10417120;28;20045;-69
2023/12/16 22:01:50;;;;;;;21.20;5.45;;;;;;;-1.54;100.00;101451.47;10416281;28;20067;-69
2023/12/16 22:06:51;;;;;;;22.85;5.65;;;;;;;-1.74;100.00;101419.25;10416585;28;20052;-70
2023/12/16 22:11:52;;;;;;;17.77;4.93;;;;;;;-1.57;100.00;101431.59;10320303;28;20051;-69
2023/12/16 22:16:53;;;;;;;24.35;5.88;;;;;;;-1.79;100.00;101420.38;10207837;29;20047;-71
2023/12/16 22:21:53;;;;;;;20.05;5.95;;;;;;;-1.70;100.00;101433.03;10207831;29;20048;-69
2023/12/16 22:26:55;;;;;;;22.08;6.03;;;;;;;-1.68;100.00;101433.78;10208171;29;20439;-69
2023/12/16 22:31:55;;;;;;;20.77;5.82;;;;;;;-1.72;100.00;101420.06;10206555;29;20422;-69
2023/12/16 22:36:56;;;;;;;20.15;5.97;;;;;;;-1.68;100.00;101419.00;10207328;28;20063;-70
2023/12/16 22:41:57;;;;;;;22.40;6.40;;;;;;;-1.70;100.00;101414.78;10208291;29;20044;-69
2023/12/16 22:46:58;;;;;;;22.83;5.68;;;;;;;-1.68;100.00;101424.22;10207697;29;20052;-70
2023/12/16 22:51:59;;;;;;;19.23;5.70;;;;;;;-2.02;100.00;101367.47;10207081;29;20038;-69
2023/12/16 22:56:59;;;;;;;25.77;5.78;;;;;;;-2.17;100.00;101357.66;10207780;29;20499;-70
2023/12/16 23:02:00;;;;;;;22.25;5.80;;;;;;;-1.66;100.00;101424.16;10207356;28;20047;-69
2023/12/16 23:07:01;;;;;;;20.40;6.25;;;;;;;-1.68;100.00;101423.38;10207665;29;20093;-69
2023/12/16 23:12:02;;;;;;;22.52;6.43;;;;;;;-1.76;100.00;101425.47;10206999;29;20042;-69
2023/12/16 23:17:03;;;;;;;23.45;6.10;;;;;;;-1.64;100.00;101425.81;10205815;29;20043;-70